This is the latest recevied weather packets stored in our database for station/object W1SCW. If no packets are shown the sender has not sent any weather packets the latest 10 day(s).
| Time | Temp. | Humidity | Pressure | Rain* | Wind** | Luminosity | Snow |
|---|---|---|---|---|---|---|---|
| 1788543926 | 22.78° C | 99% | 1013.8 hPa | 0 mm | - | 431 W/m² | - |
| 1788543623 | 22.22° C | 99% | 1013.9 hPa | 0 mm | - | 344 W/m² | - |
| 1788543316 | 22.22° C | 99% | 1013.7 hPa | 3.05 mm | - | 165 W/m² | - |
| 1788543012 | 21.67° C | 99% | 1014 hPa | 8.38 mm | - | 116 W/m² | - |
| 1788542708 | 21.67° C | 99% | 1014.3 hPa | 43.18 mm | - | 67 W/m² | - |
| 1788542407 | 22.22° C | 99% | 1014.3 hPa | 67.31 mm | - | 41 W/m² | - |
| 1788542102 | 21.67° C | 99% | 1014.5 hPa | 64.26 mm | - | 18 W/m² | - |
| 1788541798 | 21.67° C | 98% | 1015.1 hPa | 81.03 mm | - | 16 W/m² | - |
| 1788541494 | 22.22° C | 97% | 1016.7 hPa | 58.67 mm | - | 9 W/m² | - |
| 1788541189 | 27.22° C | 86% | 1015.4 hPa | 22.86 mm | - | 9 W/m² | - |
| 1788540888 | 27.22° C | 86% | 1014.5 hPa | 3.05 mm | - | 9 W/m² | - |
| 1788540587 | 35° C | 64% | 1014.6 hPa | 0 mm | - | 871 W/m² | - |
| 1788540283 | 35° C | 64% | 1014.2 hPa | 0 mm | - | 871 W/m² | - |
| 1788539979 | 35° C | 64% | 1013.8 hPa | 0 mm | - | 871 W/m² | - |
| 1788539678 | 35° C | 64% | 1013.8 hPa | 0 mm | - | 871 W/m² | - |
| 1788539378 | 35° C | 64% | 1013.5 hPa | 0 mm | - | 871 W/m² | - |
| 1788539073 | 35° C | 64% | 1013.4 hPa | 0 mm | - | 871 W/m² | - |
| 1788538768 | 35° C | 64% | 1013.3 hPa | 0 mm | - | 871 W/m² | - |
| 1788538464 | 32.22° C | 73% | 1013.1 hPa | 0 mm | - | 462 W/m² | - |
| 1788538160 | 32.22° C | 73% | 1012.8 hPa | 0 mm | - | 462 W/m² | - |
| 1788537854 | 32.22° C | 73% | 1013 hPa | 0 mm | - | 462 W/m² | - |
| 1788537549 | 32.22° C | 73% | 1013 hPa | 0 mm | - | 462 W/m² | - |
| 1788537243 | 32.22° C | 73% | 1013.1 hPa | 0 mm | - | 462 W/m² | - |
| 1788536942 | 32.22° C | 73% | 1012.9 hPa | 0 mm | - | 462 W/m² | - |
| 1788536637 | 32.22° C | 73% | 1013.1 hPa | 0 mm | - | 462 W/m² | - |
* Rain latest hour (hover to see other rain measurements)
** Current wind speed in m/s (hover to see current wind gust speed)